sensor_id;sensor_type;location;lat;lon;timestamp;P1;durP1;ratioP1;P2;durP2;ratioP2
1262;SDS011;62267;50.112;8.704;2023-11-21T00:01:33;6.73;;;3.93;;
1262;SDS011;62267;50.112;8.704;2023-11-21T00:04:00;5.00;;;4.03;;
1262;SDS011;62267;50.112;8.704;2023-11-21T00:06:28;9.50;;;6.57;;
1262;SDS011;62267;50.112;8.704;2023-11-21T00:08:56;25.57;;;5.73;;
1262;SDS011;62267;50.112;8.704;2023-11-21T00:11:24;4.50;;;3.67;;
1262;SDS011;62267;50.112;8.704;2023-11-21T00:13:54;5.83;;;3.93;;
1262;SDS011;62267;50.112;8.704;2023-11-21T00:16:22;6.57;;;4.13;;
1262;SDS011;62267;50.112;8.704;2023-11-21T00:18:50;7.10;;;4.37;;
1262;SDS011;62267;50.112;8.704;2023-11-21T00:21:17;7.77;;;4.10;;
1262;SDS011;62267;50.112;8.704;2023-11-21T00:23:45;6.60;;;4.20;;
1262;SDS011;62267;50.112;8.704;2023-11-21T00:26:12;4.27;;;3.80;;
1262;SDS011;62267;50.112;8.704;2023-11-21T00:28:44;7.07;;;4.20;;
1262;SDS011;62267;50.112;8.704;2023-11-21T00:31:12;6.30;;;3.73;;
1262;SDS011;62267;50.112;8.704;2023-11-21T00:33:40;4.00;;;3.70;;
1262;SDS011;62267;50.112;8.704;2023-11-21T00:36:08;8.03;;;4.00;;
1262;SDS011;62267;50.112;8.704;2023-11-21T00:38:36;6.57;;;3.40;;
1262;SDS011;62267;50.112;8.704;2023-11-21T00:41:06;4.77;;;4.27;;
1262;SDS011;62267;50.112;8.704;2023-11-21T00:43:34;6.20;;;4.00;;
1262;SDS011;62267;50.112;8.704;2023-11-21T00:46:08;5.80;;;3.50;;
1262;SDS011;62267;50.112;8.704;2023-11-21T00:48:35;4.17;;;3.77;;
1262;SDS011;62267;50.112;8.704;2023-11-21T00:51:03;6.90;;;3.60;;
1262;SDS011;62267;50.112;8.704;2023-11-21T00:53:30;4.10;;;3.70;;
1262;SDS011;62267;50.112;8.704;2023-11-21T00:55:58;5.97;;;3.93;;
1262;SDS011;62267;50.112;8.704;2023-11-21T00:58:26;4.33;;;3.93;;
1262;SDS011;62267;50.112;8.704;2023-11-21T01:00:53;8.10;;;3.63;;
1262;SDS011;62267;50.112;8.704;2023-11-21T01:03:21;5.77;;;3.23;;
1262;SDS011;62267;50.112;8.704;2023-11-21T01:05:49;4.93;;;3.60;;
1262;SDS011;62267;50.112;8.704;2023-11-21T01:08:17;7.77;;;5.17;;
1262;SDS011;62267;50.112;8.704;2023-11-21T01:10:44;5.23;;;4.13;;
1262;SDS011;62267;50.112;8.704;2023-11-21T01:13:12;3.73;;;3.43;;
1262;SDS011;62267;50.112;8.704;2023-11-21T01:15:42;5.37;;;4.10;;
1262;SDS011;62267;50.112;8.704;2023-11-21T01:18:10;8.60;;;5.40;;
1262;SDS011;62267;50.112;8.704;2023-11-21T01:20:38;7.13;;;4.70;;
1262;SDS011;62267;50.112;8.704;2023-11-21T01:23:06;5.97;;;3.70;;
1262;SDS011;62267;50.112;8.704;2023-11-21T01:25:34;7.57;;;4.50;;
1262;SDS011;62267;50.112;8.704;2023-11-21T01:28:02;6.77;;;4.47;;
1262;SDS011;62267;50.112;8.704;2023-11-21T01:30:32;4.10;;;3.80;;
1262;SDS011;62267;50.112;8.704;2023-11-21T01:33:00;8.43;;;4.17;;
1262;SDS011;62267;50.112;8.704;2023-11-21T01:35:27;4.37;;;3.97;;
1262;SDS011;62267;50.112;8.704;2023-11-21T01:37:55;5.90;;;4.50;;
1262;SDS011;62267;50.112;8.704;2023-11-21T01:40:22;8.20;;;6.27;;
1262;SDS011;62267;50.112;8.704;2023-11-21T01:42:52;4.87;;;4.37;;
1262;SDS011;62267;50.112;8.704;2023-11-21T01:45:20;6.20;;;4.63;;
1262;SDS011;62267;50.112;8.704;2023-11-21T01:47:47;7.63;;;6.13;;
1262;SDS011;62267;50.112;8.704;2023-11-21T01:50:15;7.27;;;5.93;;
1262;SDS011;62267;50.112;8.704;2023-11-21T01:52:45;5.60;;;4.40;;
1262;SDS011;62267;50.112;8.704;2023-11-21T01:55:13;7.70;;;4.53;;
1262;SDS011;62267;50.112;8.704;2023-11-21T01:57:53;6.40;;;4.47;;
1262;SDS011;62267;50.112;8.704;2023-11-21T02:00:22;10.57;;;5.20;;
1262;SDS011;62267;50.112;8.704;2023-11-21T02:02:50;6.67;;;5.10;;
1262;SDS011;62267;50.112;8.704;2023-11-21T02:05:19;5.77;;;4.83;;
1262;SDS011;62267;50.112;8.704;2023-11-21T02:07:48;8.80;;;6.23;;
1262;SDS011;62267;50.112;8.704;2023-11-21T02:10:15;6.40;;;5.20;;
1262;SDS011;62267;50.112;8.704;2023-11-21T02:12:43;7.43;;;5.67;;
1262;SDS011;62267;50.112;8.704;2023-11-21T02:15:12;6.47;;;5.80;;
1262;SDS011;62267;50.112;8.704;2023-11-21T02:17:47;6.03;;;5.50;;
1262;SDS011;62267;50.112;8.704;2023-11-21T02:20:19;6.33;;;5.70;;
1262;SDS011;62267;50.112;8.704;2023-11-21T02:22:53;10.43;;;6.10;;
1262;SDS011;62267;50.112;8.704;2023-11-21T02:25:29;10.57;;;6.47;;
1262;SDS011;62267;50.112;8.704;2023-11-21T02:27:58;8.77;;;5.90;;
1262;SDS011;62267;50.112;8.704;2023-11-21T02:30:26;5.50;;;5.00;;
1262;SDS011;62267;50.112;8.704;2023-11-21T02:33:01;5.73;;;5.13;;
1262;SDS011;62267;50.112;8.704;2023-11-21T02:35:30;6.13;;;5.53;;
1262;SDS011;62267;50.112;8.704;2023-11-21T02:37:58;5.77;;;5.10;;
1262;SDS011;62267;50.112;8.704;2023-11-21T02:40:26;5.20;;;4.80;;
1262;SDS011;62267;50.112;8.704;2023-11-21T02:42:54;5.90;;;5.40;;
1262;SDS011;62267;50.112;8.704;2023-11-21T02:45:22;5.57;;;5.07;;
1262;SDS011;62267;50.112;8.704;2023-11-21T02:47:51;5.07;;;4.57;;
1262;SDS011;62267;50.112;8.704;2023-11-21T02:50:20;6.20;;;5.20;;
1262;SDS011;62267;50.112;8.704;2023-11-21T02:52:50;5.47;;;4.97;;
1262;SDS011;62267;50.112;8.704;2023-11-21T02:55:19;5.93;;;4.27;;
1262;SDS011;62267;50.112;8.704;2023-11-21T02:57:47;5.00;;;4.60;;
1262;SDS011;62267;50.112;8.704;2023-11-21T03:00:15;4.50;;;4.10;;
1262;SDS011;62267;50.112;8.704;2023-11-21T03:02:43;3.80;;;3.50;;
1262;SDS011;62267;50.112;8.704;2023-11-21T03:05:11;4.17;;;3.60;;
1262;SDS011;62267;50.112;8.704;2023-11-21T03:07:39;4.73;;;3.70;;
1262;SDS011;62267;50.112;8.704;2023-11-21T03:10:07;4.77;;;3.77;;
1262;SDS011;62267;50.112;8.704;2023-11-21T03:12:39;3.73;;;3.27;;
1262;SDS011;62267;50.112;8.704;2023-11-21T03:15:09;4.00;;;3.67;;
1262;SDS011;62267;50.112;8.704;2023-11-21T03:17:36;4.63;;;4.27;;
1262;SDS011;62267;50.112;8.704;2023-11-21T03:20:04;3.93;;;3.63;;
1262;SDS011;62267;50.112;8.704;2023-11-21T03:22:33;3.90;;;3.60;;
1262;SDS011;62267;50.112;8.704;2023-11-21T03:25:01;4.17;;;3.60;;
1262;SDS011;62267;50.112;8.704;2023-11-21T03:27:29;6.20;;;4.13;;
1262;SDS011;62267;50.112;8.704;2023-11-21T03:29:58;4.27;;;3.97;;
1262;SDS011;62267;50.112;8.704;2023-11-21T03:32:26;5.10;;;4.60;;
1262;SDS011;62267;50.112;8.704;2023-11-21T03:34:57;5.23;;;4.83;;
1262;SDS011;62267;50.112;8.704;2023-11-21T03:37:26;5.73;;;5.07;;
1262;SDS011;62267;50.112;8.704;2023-11-21T03:39:56;5.30;;;4.90;;
1262;SDS011;62267;50.112;8.704;2023-11-21T03:42:26;5.73;;;4.60;;
1262;SDS011;62267;50.112;8.704;2023-11-21T03:44:54;6.20;;;5.60;;
1262;SDS011;62267;50.112;8.704;2023-11-21T03:47:22;5.87;;;5.37;;
1262;SDS011;62267;50.112;8.704;2023-11-21T03:49:53;5.50;;;5.10;;
1262;SDS011;62267;50.112;8.704;2023-11-21T03:52:20;5.53;;;4.97;;
1262;SDS011;62267;50.112;8.704;2023-11-21T03:54:48;7.97;;;5.80;;
1262;SDS011;62267;50.112;8.704;2023-11-21T03:57:16;14.60;;;6.10;;
1262;SDS011;62267;50.112;8.704;2023-11-21T03:59:43;6.67;;;5.30;;
1262;SDS011;62267;50.112;8.704;2023-11-21T04:02:11;8.17;;;5.97;;
1262;SDS011;62267;50.112;8.704;2023-11-21T04:04:38;6.40;;;5.33;;
1262;SDS011;62267;50.112;8.704;2023-11-21T04:07:06;6.07;;;5.27;;
1262;SDS011;62267;50.112;8.704;2023-11-21T04:09:33;5.17;;;4.40;;
1262;SDS011;62267;50.112;8.704;2023-11-21T04:12:02;5.10;;;4.20;;
1262;SDS011;62267;50.112;8.704;2023-11-21T04:14:32;4.63;;;4.23;;
1262;SDS011;62267;50.112;8.704;2023-11-21T04:17:00;5.40;;;4.27;;
1262;SDS011;62267;50.112;8.704;2023-11-21T04:22:21;5.93;;;5.07;;
1262;SDS011;62267;50.112;8.704;2023-11-21T04:24:49;6.00;;;4.80;;
1262;SDS011;62267;50.112;8.704;2023-11-21T04:27:18;4.87;;;4.47;;
1262;SDS011;62267;50.112;8.704;2023-11-21T04:29:45;8.33;;;5.07;;
1262;SDS011;62267;50.112;8.704;2023-11-21T04:32:13;7.73;;;5.60;;
1262;SDS011;62267;50.112;8.704;2023-11-21T04:34:40;5.87;;;5.30;;
1262;SDS011;62267;50.112;8.704;2023-11-21T04:37:08;8.10;;;5.40;;
1262;SDS011;62267;50.112;8.704;2023-11-21T04:39:36;5.60;;;4.60;;
1262;SDS011;62267;50.112;8.704;2023-11-21T04:42:04;4.90;;;4.37;;
1262;SDS011;62267;50.112;8.704;2023-11-21T04:44:31;4.53;;;4.17;;
1262;SDS011;62267;50.112;8.704;2023-11-21T04:46:58;5.30;;;4.33;;
1262;SDS011;62267;50.112;8.704;2023-11-21T04:49:26;4.80;;;4.20;;
1262;SDS011;62267;50.112;8.704;2023-11-21T04:51:53;4.77;;;4.37;;
1262;SDS011;62267;50.112;8.704;2023-11-21T04:54:21;5.87;;;4.43;;
1262;SDS011;62267;50.112;8.704;2023-11-21T04:56:53;4.87;;;4.47;;
1262;SDS011;62267;50.112;8.704;2023-11-21T04:59:20;4.97;;;4.10;;
1262;SDS011;62267;50.112;8.704;2023-11-21T05:01:51;4.93;;;4.50;;
1262;SDS011;62267;50.112;8.704;2023-11-21T05:04:18;6.83;;;6.00;;
1262;SDS011;62267;50.112;8.704;2023-11-21T05:06:46;9.83;;;6.73;;
1262;SDS011;62267;50.112;8.704;2023-11-21T05:09:16;7.43;;;6.60;;
1262;SDS011;62267;50.112;8.704;2023-11-21T05:11:46;7.47;;;6.10;;
1262;SDS011;62267;50.112;8.704;2023-11-21T05:14:14;9.03;;;6.17;;
1262;SDS011;62267;50.112;8.704;2023-11-21T05:16:41;10.30;;;7.50;;
1262;SDS011;62267;50.112;8.704;2023-11-21T05:19:08;9.03;;;7.37;;
1262;SDS011;62267;50.112;8.704;2023-11-21T05:21:36;9.07;;;7.63;;
1262;SDS011;62267;50.112;8.704;2023-11-21T05:24:03;10.47;;;7.43;;
1262;SDS011;62267;50.112;8.704;2023-11-21T05:26:32;12.03;;;8.17;;
1262;SDS011;62267;50.112;8.704;2023-11-21T05:29:00;11.07;;;8.17;;
1262;SDS011;62267;50.112;8.704;2023-11-21T05:31:27;10.70;;;7.67;;
1262;SDS011;62267;50.112;8.704;2023-11-21T05:33:55;11.10;;;8.70;;
1262;SDS011;62267;50.112;8.704;2023-11-21T05:36:22;10.70;;;7.50;;
1262;SDS011;62267;50.112;8.704;2023-11-21T05:38:49;15.07;;;9.67;;
1262;SDS011;62267;50.112;8.704;2023-11-21T05:41:17;13.33;;;10.10;;
1262;SDS011;62267;50.112;8.704;2023-11-21T05:43:44;15.70;;;10.80;;
1262;SDS011;62267;50.112;8.704;2023-11-21T05:46:12;17.67;;;11.97;;
1262;SDS011;62267;50.112;8.704;2023-11-21T05:48:40;18.77;;;12.33;;
1262;SDS011;62267;50.112;8.704;2023-11-21T05:51:07;18.33;;;12.83;;
1262;SDS011;62267;50.112;8.704;2023-11-21T05:53:34;18.77;;;12.43;;
1262;SDS011;62267;50.112;8.704;2023-11-21T05:56:02;16.70;;;12.10;;
1262;SDS011;62267;50.112;8.704;2023-11-21T05:58:30;20.03;;;14.47;;
1262;SDS011;62267;50.112;8.704;2023-11-21T06:00:57;20.07;;;13.07;;
1262;SDS011;62267;50.112;8.704;2023-11-21T06:03:25;22.30;;;13.67;;
1262;SDS011;62267;50.112;8.704;2023-11-21T06:05:52;21.47;;;13.50;;
1262;SDS011;62267;50.112;8.704;2023-11-21T06:08:20;18.20;;;13.47;;
1262;SDS011;62267;50.112;8.704;2023-11-21T06:10:49;20.90;;;14.87;;
1262;SDS011;62267;50.112;8.704;2023-11-21T06:13:18;17.90;;;13.60;;
1262;SDS011;62267;50.112;8.704;2023-11-21T06:15:51;24.77;;;14.90;;
1262;SDS011;62267;50.112;8.704;2023-11-21T06:18:18;19.50;;;13.10;;
1262;SDS011;62267;50.112;8.704;2023-11-21T06:20:46;23.40;;;15.23;;
1262;SDS011;62267;50.112;8.704;2023-11-21T06:23:13;25.73;;;15.07;;
1262;SDS011;62267;50.112;8.704;2023-11-21T06:25:41;23.40;;;14.60;;
1262;SDS011;62267;50.112;8.704;2023-11-21T06:28:08;23.80;;;15.20;;
1262;SDS011;62267;50.112;8.704;2023-11-21T06:30:39;23.43;;;14.13;;
1262;SDS011;62267;50.112;8.704;2023-11-21T06:33:10;25.03;;;14.90;;
1262;SDS011;62267;50.112;8.704;2023-11-21T06:35:37;23.40;;;13.33;;
1262;SDS011;62267;50.112;8.704;2023-11-21T06:38:04;24.43;;;14.00;;
1262;SDS011;62267;50.112;8.704;2023-11-21T06:40:32;24.93;;;15.20;;
1262;SDS011;62267;50.112;8.704;2023-11-21T06:43:00;27.47;;;14.90;;
1262;SDS011;62267;50.112;8.704;2023-11-21T06:45:28;16.30;;;11.43;;
1262;SDS011;62267;50.112;8.704;2023-11-21T06:47:55;16.63;;;10.73;;
1262;SDS011;62267;50.112;8.704;2023-11-21T06:50:23;14.20;;;10.50;;
1262;SDS011;62267;50.112;8.704;2023-11-21T06:52:50;14.77;;;8.50;;
1262;SDS011;62267;50.112;8.704;2023-11-21T06:55:18;13.77;;;9.00;;
1262;SDS011;62267;50.112;8.704;2023-11-21T06:57:47;11.47;;;8.73;;
1262;SDS011;62267;50.112;8.704;2023-11-21T07:00:17;11.37;;;8.47;;
1262;SDS011;62267;50.112;8.704;2023-11-21T07:02:45;12.90;;;9.50;;
1262;SDS011;62267;50.112;8.704;2023-11-21T07:05:14;13.87;;;8.60;;
1262;SDS011;62267;50.112;8.704;2023-11-21T07:07:47;11.63;;;7.97;;
1262;SDS011;62267;50.112;8.704;2023-11-21T07:10:14;13.70;;;8.50;;
1262;SDS011;62267;50.112;8.704;2023-11-21T07:12:43;15.00;;;9.70;;
1262;SDS011;62267;50.112;8.704;2023-11-21T07:15:10;15.13;;;9.37;;
1262;SDS011;62267;50.112;8.704;2023-11-21T07:17:38;11.50;;;9.30;;
1262;SDS011;62267;50.112;8.704;2023-11-21T07:20:07;14.87;;;10.00;;
1262;SDS011;62267;50.112;8.704;2023-11-21T07:22:35;15.47;;;9.60;;
1262;SDS011;62267;50.112;8.704;2023-11-21T07:25:02;12.10;;;8.80;;
1262;SDS011;62267;50.112;8.704;2023-11-21T07:27:30;12.37;;;9.47;;
1262;SDS011;62267;50.112;8.704;2023-11-21T07:30:00;14.67;;;11.73;;
1262;SDS011;62267;50.112;8.704;2023-11-21T07:32:31;11.20;;;9.63;;
1262;SDS011;62267;50.112;8.704;2023-11-21T07:34:58;13.53;;;9.60;;
1262;SDS011;62267;50.112;8.704;2023-11-21T07:37:27;12.40;;;9.40;;
1262;SDS011;62267;50.112;8.704;2023-11-21T07:39:55;12.47;;;9.10;;
1262;SDS011;62267;50.112;8.704;2023-11-21T07:42:26;12.17;;;9.00;;
1262;SDS011;62267;50.112;8.704;2023-11-21T07:44:55;14.50;;;8.80;;
1262;SDS011;62267;50.112;8.704;2023-11-21T07:47:22;14.27;;;9.33;;
1262;SDS011;62267;50.112;8.704;2023-11-21T07:49:53;13.47;;;9.20;;
1262;SDS011;62267;50.112;8.704;2023-11-21T07:52:22;11.40;;;8.90;;
1262;SDS011;62267;50.112;8.704;2023-11-21T07:54:51;11.00;;;9.13;;
1262;SDS011;62267;50.112;8.704;2023-11-21T07:57:20;15.40;;;9.90;;
1262;SDS011;62267;50.112;8.704;2023-11-21T07:59:47;13.33;;;9.03;;
1262;SDS011;62267;50.112;8.704;2023-11-21T08:02:15;14.20;;;9.30;;
1262;SDS011;62267;50.112;8.704;2023-11-21T08:04:44;13.97;;;10.20;;
1262;SDS011;62267;50.112;8.704;2023-11-21T08:07:11;16.03;;;9.90;;
1262;SDS011;62267;50.112;8.704;2023-11-21T08:09:38;13.00;;;9.77;;
1262;SDS011;62267;50.112;8.704;2023-11-21T08:12:06;16.43;;;10.23;;
1262;SDS011;62267;50.112;8.704;2023-11-21T08:14:33;13.53;;;9.27;;
1262;SDS011;62267;50.112;8.704;2023-11-21T08:17:06;14.73;;;10.60;;
1262;SDS011;62267;50.112;8.704;2023-11-21T08:19:33;12.47;;;9.60;;
1262;SDS011;62267;50.112;8.704;2023-11-21T08:22:01;12.63;;;9.30;;
1262;SDS011;62267;50.112;8.704;2023-11-21T08:24:29;14.57;;;10.63;;
1262;SDS011;62267;50.112;8.704;2023-11-21T08:26:57;17.60;;;11.53;;
1262;SDS011;62267;50.112;8.704;2023-11-21T08:29:24;16.37;;;11.10;;
1262;SDS011;62267;50.112;8.704;2023-11-21T08:31:53;14.27;;;11.03;;
1262;SDS011;62267;50.112;8.704;2023-11-21T08:34:20;15.23;;;10.63;;
1262;SDS011;62267;50.112;8.704;2023-11-21T08:36:47;16.83;;;10.90;;
1262;SDS011;62267;50.112;8.704;2023-11-21T08:39:15;17.77;;;12.37;;
1262;SDS011;62267;50.112;8.704;2023-11-21T08:41:45;13.73;;;10.40;;
1262;SDS011;62267;50.112;8.704;2023-11-21T08:44:12;15.40;;;10.93;;
1262;SDS011;62267;50.112;8.704;2023-11-21T08:46:39;20.53;;;13.47;;
1262;SDS011;62267;50.112;8.704;2023-11-21T08:49:08;13.80;;;11.40;;
1262;SDS011;62267;50.112;8.704;2023-11-21T08:51:35;15.43;;;10.70;;
1262;SDS011;62267;50.112;8.704;2023-11-21T08:54:03;12.40;;;9.97;;
1262;SDS011;62267;50.112;8.704;2023-11-21T08:56:34;16.13;;;11.20;;
1262;SDS011;62267;50.112;8.704;2023-11-21T08:59:01;14.00;;;9.60;;
1262;SDS011;62267;50.112;8.704;2023-11-21T09:01:29;17.10;;;12.50;;
1262;SDS011;62267;50.112;8.704;2023-11-21T09:03:59;19.57;;;11.70;;
1262;SDS011;62267;50.112;8.704;2023-11-21T09:06:28;17.17;;;9.60;;
1262;SDS011;62267;50.112;8.704;2023-11-21T09:08:55;15.20;;;11.13;;
1262;SDS011;62267;50.112;8.704;2023-11-21T09:11:22;11.57;;;8.70;;
1262;SDS011;62267;50.112;8.704;2023-11-21T09:13:49;13.47;;;9.27;;
1262;SDS011;62267;50.112;8.704;2023-11-21T09:16:17;14.60;;;9.67;;
1262;SDS011;62267;50.112;8.704;2023-11-21T09:18:45;13.40;;;9.50;;
1262;SDS011;62267;50.112;8.704;2023-11-21T09:21:13;15.67;;;10.80;;
1262;SDS011;62267;50.112;8.704;2023-11-21T09:23:44;12.03;;;9.20;;
1262;SDS011;62267;50.112;8.704;2023-11-21T09:26:12;13.60;;;9.37;;
1262;SDS011;62267;50.112;8.704;2023-11-21T09:28:43;12.50;;;9.53;;
1262;SDS011;62267;50.112;8.704;2023-11-21T09:31:14;12.73;;;8.60;;
1262;SDS011;62267;50.112;8.704;2023-11-21T09:33:43;16.80;;;8.80;;
1262;SDS011;62267;50.112;8.704;2023-11-21T09:36:11;10.77;;;8.73;;
1262;SDS011;62267;50.112;8.704;2023-11-21T09:38:41;12.70;;;8.60;;
1262;SDS011;62267;50.112;8.704;2023-11-21T09:41:21;10.80;;;8.77;;
1262;SDS011;62267;50.112;8.704;2023-11-21T09:43:52;12.87;;;10.10;;
1262;SDS011;62267;50.112;8.704;2023-11-21T09:46:22;11.80;;;9.13;;
1262;SDS011;62267;50.112;8.704;2023-11-21T09:48:51;12.03;;;8.73;;
1262;SDS011;62267;50.112;8.704;2023-11-21T09:51:19;13.60;;;9.13;;
1262;SDS011;62267;50.112;8.704;2023-11-21T09:53:49;15.70;;;9.53;;
1262;SDS011;62267;50.112;8.704;2023-11-21T09:56:20;16.17;;;9.20;;
1262;SDS011;62267;50.112;8.704;2023-11-21T09:58:51;13.03;;;8.90;;
1262;SDS011;62267;50.112;8.704;2023-11-21T10:01:19;11.43;;;9.87;;
1262;SDS011;62267;50.112;8.704;2023-11-21T10:03:48;13.63;;;8.63;;
1262;SDS011;62267;50.112;8.704;2023-11-21T10:06:17;15.53;;;9.13;;
1262;SDS011;62267;50.112;8.704;2023-11-21T10:08:45;15.40;;;9.33;;
1262;SDS011;62267;50.112;8.704;2023-11-21T10:11:21;13.13;;;8.43;;
1262;SDS011;62267;50.112;8.704;2023-11-21T10:13:52;11.50;;;9.30;;
1262;SDS011;62267;50.112;8.704;2023-11-21T10:16:20;12.83;;;9.10;;
1262;SDS011;62267;50.112;8.704;2023-11-21T10:18:50;12.03;;;9.10;;
1262;SDS011;62267;50.112;8.704;2023-11-21T10:21:40;14.53;;;9.13;;
1262;SDS011;62267;50.112;8.704;2023-11-21T10:24:07;14.60;;;9.50;;
1262;SDS011;62267;50.112;8.704;2023-11-21T10:26:35;13.53;;;9.23;;
1262;SDS011;62267;50.112;8.704;2023-11-21T10:29:18;12.13;;;9.87;;
1262;SDS011;62267;50.112;8.704;2023-11-21T10:31:50;10.93;;;8.70;;
1262;SDS011;62267;50.112;8.704;2023-11-21T10:34:19;10.13;;;7.63;;
1262;SDS011;62267;50.112;8.704;2023-11-21T10:36:48;12.07;;;8.33;;
1262;SDS011;62267;50.112;8.704;2023-11-21T10:39:19;8.67;;;6.93;;
1262;SDS011;62267;50.112;8.704;2023-11-21T10:42:01;12.33;;;7.50;;
1262;SDS011;62267;50.112;8.704;2023-11-21T10:44:28;11.33;;;7.70;;
1262;SDS011;62267;50.112;8.704;2023-11-21T10:46:56;11.03;;;7.67;;
1262;SDS011;62267;50.112;8.704;2023-11-21T10:49:26;7.77;;;6.97;;
1262;SDS011;62267;50.112;8.704;2023-11-21T10:51:54;10.20;;;7.43;;
1262;SDS011;62267;50.112;8.704;2023-11-21T10:54:24;15.70;;;8.87;;
1262;SDS011;62267;50.112;8.704;2023-11-21T10:56:59;14.30;;;7.63;;
1262;SDS011;62267;50.112;8.704;2023-11-21T10:59:30;11.40;;;8.07;;
1262;SDS011;62267;50.112;8.704;2023-11-21T11:01:59;12.37;;;8.07;;
1262;SDS011;62267;50.112;8.704;2023-11-21T11:04:30;9.13;;;7.50;;
1262;SDS011;62267;50.112;8.704;2023-11-21T11:06:57;11.00;;;9.30;;
1262;SDS011;62267;50.112;8.704;2023-11-21T11:09:28;14.63;;;9.97;;
1262;SDS011;62267;50.112;8.704;2023-11-21T11:11:55;10.50;;;8.07;;
1262;SDS011;62267;50.112;8.704;2023-11-21T11:14:23;10.07;;;8.33;;
1262;SDS011;62267;50.112;8.704;2023-11-21T11:16:53;13.93;;;8.17;;
1262;SDS011;62267;50.112;8.704;2023-11-21T11:19:22;10.60;;;8.30;;
1262;SDS011;62267;50.112;8.704;2023-11-21T11:27:30;13.73;;;9.07;;
1262;SDS011;62267;50.112;8.704;2023-11-21T11:30:06;11.20;;;8.20;;
1262;SDS011;62267;50.112;8.704;2023-11-21T11:35:07;20.00;;;9.20;;
1262;SDS011;62267;50.112;8.704;2023-11-21T11:37:37;16.53;;;9.73;;
1262;SDS011;62267;50.112;8.704;2023-11-21T11:40:08;11.60;;;8.33;;
1262;SDS011;62267;50.112;8.704;2023-11-21T11:42:38;10.10;;;8.13;;
1262;SDS011;62267;50.112;8.704;2023-11-21T11:45:31;10.73;;;7.97;;
1262;SDS011;62267;50.112;8.704;2023-11-21T11:47:57;11.07;;;8.03;;
1262;SDS011;62267;50.112;8.704;2023-11-21T11:50:27;11.40;;;8.03;;
1262;SDS011;62267;50.112;8.704;2023-11-21T11:52:55;13.27;;;9.63;;
1262;SDS011;62267;50.112;8.704;2023-11-21T11:55:24;13.03;;;8.73;;
1262;SDS011;62267;50.112;8.704;2023-11-21T11:57:52;13.47;;;9.47;;
1262;SDS011;62267;50.112;8.704;2023-11-21T12:02:56;14.63;;;8.10;;
1262;SDS011;62267;50.112;8.704;2023-11-21T12:05:23;9.90;;;7.60;;
1262;SDS011;62267;50.112;8.704;2023-11-21T12:07:54;11.60;;;7.93;;
1262;SDS011;62267;50.112;8.704;2023-11-21T12:10:25;11.93;;;8.60;;
1262;SDS011;62267;50.112;8.704;2023-11-21T12:12:59;8.13;;;6.53;;
1262;SDS011;62267;50.112;8.704;2023-11-21T12:15:28;8.67;;;7.27;;
1262;SDS011;62267;50.112;8.704;2023-11-21T12:17:57;12.73;;;7.20;;
1262;SDS011;62267;50.112;8.704;2023-11-21T12:20:26;11.07;;;7.30;;
1262;SDS011;62267;50.112;8.704;2023-11-21T12:22:54;12.70;;;8.10;;
1262;SDS011;62267;50.112;8.704;2023-11-21T12:25:23;13.07;;;7.67;;
1262;SDS011;62267;50.112;8.704;2023-11-21T12:27:52;13.63;;;8.33;;
1262;SDS011;62267;50.112;8.704;2023-11-21T12:30:20;9.67;;;8.67;;
1262;SDS011;62267;50.112;8.704;2023-11-21T12:32:52;16.90;;;8.97;;
1262;SDS011;62267;50.112;8.704;2023-11-21T12:35:20;13.33;;;8.40;;
1262;SDS011;62267;50.112;8.704;2023-11-21T12:37:50;10.27;;;7.20;;
1262;SDS011;62267;50.112;8.704;2023-11-21T12:40:18;9.40;;;8.40;;
1262;SDS011;62267;50.112;8.704;2023-11-21T12:42:46;9.93;;;7.53;;
1262;SDS011;62267;50.112;8.704;2023-11-21T12:45:18;11.47;;;7.10;;
1262;SDS011;62267;50.112;8.704;2023-11-21T12:47:48;11.17;;;8.07;;
1262;SDS011;62267;50.112;8.704;2023-11-21T12:50:26;8.93;;;7.03;;
1262;SDS011;62267;50.112;8.704;2023-11-21T12:53:00;10.30;;;7.20;;
1262;SDS011;62267;50.112;8.704;2023-11-21T12:55:30;12.07;;;6.57;;
1262;SDS011;62267;50.112;8.704;2023-11-21T12:58:00;17.37;;;8.23;;
1262;SDS011;62267;50.112;8.704;2023-11-21T13:00:39;11.37;;;7.37;;
1262;SDS011;62267;50.112;8.704;2023-11-21T13:03:10;10.33;;;7.63;;
1262;SDS011;62267;50.112;8.704;2023-11-21T13:05:40;9.30;;;7.13;;
1262;SDS011;62267;50.112;8.704;2023-11-21T13:08:18;9.33;;;7.00;;
1262;SDS011;62267;50.112;8.704;2023-11-21T13:10:49;13.47;;;9.00;;
1262;SDS011;62267;50.112;8.704;2023-11-21T13:13:17;10.80;;;8.03;;
1262;SDS011;62267;50.112;8.704;2023-11-21T13:15:50;9.70;;;7.73;;
1262;SDS011;62267;50.112;8.704;2023-11-21T13:18:18;21.13;;;9.27;;
1262;SDS011;62267;50.112;8.704;2023-11-21T13:20:48;10.60;;;7.57;;
1262;SDS011;62267;50.112;8.704;2023-11-21T13:23:16;11.97;;;7.53;;
1262;SDS011;62267;50.112;8.704;2023-11-21T13:25:43;9.20;;;7.40;;
1262;SDS011;62267;50.112;8.704;2023-11-21T13:28:28;9.37;;;6.90;;
1262;SDS011;62267;50.112;8.704;2023-11-21T13:30:59;8.37;;;7.57;;
1262;SDS011;62267;50.112;8.704;2023-11-21T13:33:37;10.43;;;7.17;;
1262;SDS011;62267;50.112;8.704;2023-11-21T13:36:05;13.60;;;8.80;;
1262;SDS011;62267;50.112;8.704;2023-11-21T13:38:36;11.00;;;7.10;;
1262;SDS011;62267;50.112;8.704;2023-11-21T13:41:08;9.10;;;6.77;;
1262;SDS011;62267;50.112;8.704;2023-11-21T13:43:36;9.60;;;6.80;;
1262;SDS011;62267;50.112;8.704;2023-11-21T13:46:04;8.60;;;6.80;;
1262;SDS011;62267;50.112;8.704;2023-11-21T13:48:41;9.50;;;6.43;;
1262;SDS011;62267;50.112;8.704;2023-11-21T13:51:11;9.30;;;6.47;;
1262;SDS011;62267;50.112;8.704;2023-11-21T13:53:47;10.10;;;7.40;;
1262;SDS011;62267;50.112;8.704;2023-11-21T13:56:16;15.60;;;9.10;;
1262;SDS011;62267;50.112;8.704;2023-11-21T13:58:57;9.83;;;7.40;;
1262;SDS011;62267;50.112;8.704;2023-11-21T14:01:30;16.20;;;11.17;;
1262;SDS011;62267;50.112;8.704;2023-11-21T14:03:58;14.13;;;7.60;;
1262;SDS011;62267;50.112;8.704;2023-11-21T14:06:39;7.37;;;5.87;;
1262;SDS011;62267;50.112;8.704;2023-11-21T14:09:18;9.47;;;7.07;;
1262;SDS011;62267;50.112;8.704;2023-11-21T14:11:52;11.03;;;8.07;;
1262;SDS011;62267;50.112;8.704;2023-11-21T14:14:22;10.00;;;7.07;;
1262;SDS011;62267;50.112;8.704;2023-11-21T14:16:51;11.60;;;8.80;;
1262;SDS011;62267;50.112;8.704;2023-11-21T14:19:19;14.13;;;10.10;;
1262;SDS011;62267;50.112;8.704;2023-11-21T14:21:47;11.53;;;9.17;;
1262;SDS011;62267;50.112;8.704;2023-11-21T14:24:15;11.20;;;8.30;;
1262;SDS011;62267;50.112;8.704;2023-11-21T14:26:45;9.73;;;8.33;;
1262;SDS011;62267;50.112;8.704;2023-11-21T14:29:15;12.80;;;9.70;;
1262;SDS011;62267;50.112;8.704;2023-11-21T14:31:46;12.13;;;8.47;;
1262;SDS011;62267;50.112;8.704;2023-11-21T14:34:13;9.60;;;7.80;;
1262;SDS011;62267;50.112;8.704;2023-11-21T14:36:45;10.53;;;8.73;;
1262;SDS011;62267;50.112;8.704;2023-11-21T14:39:16;10.77;;;8.30;;
1262;SDS011;62267;50.112;8.704;2023-11-21T14:41:52;15.23;;;9.33;;
1262;SDS011;62267;50.112;8.704;2023-11-21T14:44:22;13.67;;;8.63;;
1262;SDS011;62267;50.112;8.704;2023-11-21T14:46:59;9.77;;;8.77;;
1262;SDS011;62267;50.112;8.704;2023-11-21T14:49:32;13.57;;;9.03;;
1262;SDS011;62267;50.112;8.704;2023-11-21T14:52:15;10.67;;;8.60;;
1262;SDS011;62267;50.112;8.704;2023-11-21T14:55:02;17.33;;;9.43;;
1262;SDS011;62267;50.112;8.704;2023-11-21T14:57:49;11.77;;;7.90;;
1262;SDS011;62267;50.112;8.704;2023-11-21T15:00:17;10.00;;;7.57;;
1262;SDS011;62267;50.112;8.704;2023-11-21T15:03:00;12.43;;;8.20;;
1262;SDS011;62267;50.112;8.704;2023-11-21T15:05:28;12.03;;;8.90;;
1262;SDS011;62267;50.112;8.704;2023-11-21T15:07:55;13.17;;;9.23;;
1262;SDS011;62267;50.112;8.704;2023-11-21T15:10:34;14.70;;;8.67;;
1262;SDS011;62267;50.112;8.704;2023-11-21T15:13:14;12.83;;;8.50;;
1262;SDS011;62267;50.112;8.704;2023-11-21T15:15:42;14.70;;;9.50;;
1262;SDS011;62267;50.112;8.704;2023-11-21T15:18:09;11.77;;;9.23;;